»·PEaware :: N48HB KNUW-KPDX

N48HB :: KNUW-KPDX

FLIGHT INFORMATION

Flight Status: Arrived
Operator: Privately registered:
United States
More flights under this callsign
Pilot: Harold B. (11150)
Aircraft: BEECH AIRCRAFT BARON
(BE58)
More flights by this aircraft type
Origin: KNUW Whidbey Island NAS
United States
Destination: KPDX Portland Intl
United States
More flights between these airports :: More routes between these airports
Route: +
File this flight plan on PilotEdge
Remarks:
Altitude:
(Current/Filed)
7,500ft
Speed:
(Current/Filed)
0kts
Departed: 26-Jul-18 12:18 PM
Arrived: 26-Jul-18 01:09 PM
Distance/Time
Traveled:
166nm/0:51
Distance/Time
To Go:
Arrived

Flight Plot

Page will automatically refresh every two minutes.

Flight plan parsing failed; only flown route is shown


Map Options




Map Legend


Flown Route
Filed Route
Departure Airport
Arrival Airport
Navaid (VOR, NDB)
Fix

Horizontal Profiles

Position Reports

Time Latitude Longitude Heading Altitude Ground
Speed
26-Jul-18 12:18 48.057715 -122.743816 186 7500ft 209kts
26-Jul-18 12:19 48.007116 -122.753102 186 7335ft 212kts
26-Jul-18 12:20 47.949151 -122.763666 186 7335ft 210kts
26-Jul-18 12:21 47.904222 -122.771738 186 7335ft 209kts
26-Jul-18 12:22 47.849380 -122.781561 186 7335ft 210kts
26-Jul-18 12:23 47.792162 -122.791650 186 7334ft 206kts
26-Jul-18 12:24 47.735482 -122.801397 185 7335ft 205kts
26-Jul-18 12:25 47.678857 -122.808211 184 7335ft 205kts
26-Jul-18 12:26 47.622113 -122.813755 183 7335ft 205kts
26-Jul-18 12:27 47.565214 -122.818981 183 7335ft 205kts
26-Jul-18 12:28 47.519836 -122.823968 185 7335ft 205kts
26-Jul-18 12:29 47.464586 -122.831906 185 7335ft 205kts
26-Jul-18 12:30 47.407929 -122.840030 185 7335ft 205kts
26-Jul-18 12:31 47.351335 -122.848141 185 7335ft 205kts
26-Jul-18 12:32 47.294644 -122.856260 185 7335ft 205kts
26-Jul-18 12:33 47.237959 -122.864300 185 7335ft 205kts
26-Jul-18 12:34 47.181144 -122.872309 185 7335ft 205kts
26-Jul-18 12:35 47.124372 -122.880288 185 7335ft 205kts
26-Jul-18 12:36 47.067733 -122.888227 185 7335ft 205kts
26-Jul-18 12:37 47.010946 -122.896165 185 7335ft 205kts
26-Jul-18 12:38 46.954580 -122.895799 168 7336ft 205kts
26-Jul-18 12:39 46.898934 -122.879152 168 7335ft 205kts
26-Jul-18 12:40 46.843072 -122.862174 168 7335ft 205kts
26-Jul-18 12:41 46.787400 -122.845183 170 7344ft 205kts
26-Jul-18 12:42 46.731136 -122.831030 170 7344ft 205kts
26-Jul-18 12:43 46.676977 -122.817398 170 7344ft 205kts
26-Jul-18 12:44 46.620846 -122.803273 170 7344ft 205kts
26-Jul-18 12:45 46.564331 -122.791810 172 7344ft 205kts
26-Jul-18 12:46 46.507712 -122.780486 172 7344ft 205kts
26-Jul-18 12:47 46.460702 -122.770047 169 7344ft 205kts
26-Jul-18 12:48 46.404841 -122.754541 169 7344ft 205kts
26-Jul-18 12:49 46.348658 -122.739980 171 7344ft 205kts
26-Jul-18 12:50 46.292398 -122.726565 170 7344ft 205kts
26-Jul-18 12:51 46.226721 -122.709716 169 7344ft 205kts
26-Jul-18 12:52 46.170644 -122.695652 170 7344ft 205kts
26-Jul-18 12:53 46.123651 -122.683972 169 7344ft 205kts
26-Jul-18 12:54 46.067359 -122.669947 170 7344ft 205kts
26-Jul-18 12:55 46.017859 -122.656923 169 7251ft 168kts
26-Jul-18 12:56 45.972074 -122.645343 169 7345ft 169kts
26-Jul-18 12:57 45.925407 -122.633547 169 7343ft 169kts
26-Jul-18 12:58 45.879061 -122.621816 169 7126ft 179kts
26-Jul-18 12:59 45.829222 -122.609579 170 6140ft 184kts
26-Jul-18 13:00 45.789193 -122.599553 169 5389ft 183kts
26-Jul-18 13:01 45.743686 -122.596225 176 4491ft 173kts
26-Jul-18 13:02 45.696074 -122.597075 173 3080ft 170kts
26-Jul-18 13:03 45.654477 -122.589198 153 1906ft 129kts
26-Jul-18 13:04 45.631678 -122.554394 126 1631ft 122kts
26-Jul-18 13:05 45.613235 -122.515180 116 1747ft 119kts
26-Jul-18 13:06 45.596497 -122.482321 183 1750ft 106kts
26-Jul-18 13:07 45.569324 -122.488497 200 1549ft 98kts
26-Jul-18 13:08 45.566553 -122.523604 301 807ft 99kts
26-Jul-18 13:09 45.579631 -122.556977 297 232ft 96kts
26-Jul-18 13:10 45.588348 -122.579029 298 24ft 22kts
26-Jul-18 13:11 45.588348 -122.582467 208 24ft 8kts

Navigation Log

Ident Type
Flight plan parsing failed, navigation log unavailable